Time;durP1;ratioP1;P1;durP2;ratioP2;P2;SDS_P1;SDS_P2;PMS_P1;PMS_P2;Temp;Humidity;BMP_temperature;BMP_pressure;BME280_temperature;BME280_humidity;BME280_pressure;Samples;Min_cycle;Max_cycle;Signal;HPM_P1;HPM_P2
2022/05/23 00:01:13;;;;;;;5.20;2.17;;;16.70;94.50;;;;;;5026420;28;20085;-59
2022/05/23 00:03:38;;;;;;;7.50;2.30;;;16.70;94.60;;;;;;5026319;28;20045;-61
2022/05/23 00:06:05;;;;;;;4.18;1.77;;;16.60;94.70;;;;;;5024628;28;20040;-58
2022/05/23 00:08:31;;;;;;;9.75;1.92;;;16.60;94.80;;;;;;5010305;28;20032;-59
2022/05/23 00:10:57;;;;;;;6.50;2.08;;;16.60;95.10;;;;;;5027830;28;20026;-60
2022/05/23 00:13:23;;;;;;;8.13;1.92;;;16.50;94.90;;;;;;5029982;28;20044;-60
2022/05/23 00:15:49;;;;;;;4.97;2.22;;;16.50;94.90;;;;;;5020467;28;20044;-61
2022/05/23 00:18:15;;;;;;;3.53;2.15;;;16.40;95.20;;;;;;5023212;28;20061;-60
2022/05/23 00:20:41;;;;;;;9.85;2.35;;;16.40;95.50;;;;;;5025116;28;20029;-60
2022/05/23 00:23:07;;;;;;;5.97;2.28;;;16.40;95.50;;;;;;5028903;28;20035;-61
2022/05/23 00:25:33;;;;;;;4.85;2.28;;;16.40;95.80;;;;;;5027548;28;20076;-59
2022/05/23 00:27:59;;;;;;;5.22;2.03;;;16.30;96.10;;;;;;5029144;28;20487;-60
2022/05/23 00:30:26;;;;;;;4.22;2.33;;;16.20;96.30;;;;;;5026407;28;20124;-60
2022/05/23 00:35:38;;;;;;;5.43;1.98;;;16.10;96.60;;;;;;5021212;28;20044;-60
2022/05/23 00:38:04;;;;;;;6.18;2.13;;;16.10;96.60;;;;;;5011128;28;20026;-60
2022/05/23 00:40:29;;;;;;;4.93;2.22;;;16.10;96.60;;;;;;5020702;28;20458;-60
2022/05/23 00:43:13;;;;;;;6.05;2.20;;;16.10;96.60;;;;;;5029905;28;20061;-60
2022/05/23 00:45:43;;;;;;;4.57;2.63;;;16.20;96.60;;;;;;5021438;28;20046;-60
2022/05/23 00:48:10;;;;;;;9.82;2.03;;;16.10;96.80;;;;;;5011584;28;20041;-60
2022/05/23 00:50:39;;;;;;;3.03;1.67;;;16.10;96.90;;;;;;5029460;28;20022;-59
2022/05/23 00:53:07;;;;;;;4.50;2.05;;;16.10;96.90;;;;;;5027617;28;20052;-60
2022/05/23 00:55:44;;;;;;;4.68;2.05;;;16.10;96.80;;;;;;5026325;28;20029;-59
2022/05/23 00:58:24;;;;;;;4.30;2.17;;;16.20;96.80;;;;;;5025466;28;20025;-60
2022/05/23 01:00:51;;;;;;;4.10;2.13;;;16.20;96.80;;;;;;5026756;28;20068;-60
2022/05/23 01:03:18;;;;;;;13.00;3.67;;;16.20;97.00;;;;;;5020176;28;20125;-56
2022/05/23 01:05:45;;;;;;;13.65;2.40;;;16.20;97.10;;;;;;5026272;28;20061;-60
2022/05/23 01:08:15;;;;;;;7.15;1.85;;;16.20;97.30;;;;;;5026895;28;20423;-60
2022/05/23 01:10:42;;;;;;;5.53;2.50;;;16.10;97.40;;;;;;5026773;28;20442;-60
2022/05/23 01:13:08;;;;;;;6.38;2.15;;;16.10;97.70;;;;;;5018715;28;20033;-61
2022/05/23 01:15:34;;;;;;;5.28;2.38;;;16.00;98.30;;;;;;5023485;28;20107;-59
2022/05/23 01:18:01;;;;;;;5.30;2.40;;;16.00;98.20;;;;;;5027814;28;20112;-60
2022/05/23 01:20:28;;;;;;;5.45;2.30;;;16.00;97.90;;;;;;5024203;28;20037;-60
2022/05/23 01:23:06;;;;;;;8.45;2.00;;;16.00;97.90;;;;;;5027986;28;20057;-59
2022/05/23 01:25:35;;;;;;;6.40;2.40;;;16.10;97.90;;;;;;5014678;28;20060;-61
2022/05/23 01:28:02;;;;;;;5.78;2.38;;;16.10;97.80;;;;;;5020058;28;20056;-60
2022/05/23 01:30:29;;;;;;;4.07;1.88;;;16.10;97.90;;;;;;5026804;28;20029;-60
2022/05/23 01:32:55;;;;;;;6.97;2.15;;;16.10;97.90;;;;;;5000029;28;20511;-59
2022/05/23 01:35:20;;;;;;;6.55;2.33;;;16.10;97.80;;;;;;5023885;28;20052;-58
2022/05/23 01:37:46;;;;;;;4.32;1.92;;;16.10;97.60;;;;;;5029175;28;20025;-57
2022/05/23 01:40:15;;;;;;;6.15;2.83;;;16.10;97.70;;;;;;5028432;28;20095;-60
2022/05/23 01:42:41;;;;;;;5.55;2.65;;;16.10;97.60;;;;;;5022170;28;20459;-57
2022/05/23 01:45:08;;;;;;;4.45;2.47;;;16.20;97.40;;;;;;5024639;28;20030;-60
2022/05/23 01:47:34;;;;;;;4.93;2.47;;;16.20;97.30;;;;;;5025001;28;20034;-60
2022/05/23 01:49:59;;;;;;;6.07;2.10;;;16.20;97.40;;;;;;5018530;28;20037;-59
2022/05/23 01:52:25;;;;;;;6.28;2.03;;;16.20;97.70;;;;;;5028093;28;20037;-60
2022/05/23 01:54:50;;;;;;;7.15;2.47;;;16.20;97.40;;;;;;5025068;28;20126;-58
2022/05/23 01:57:16;;;;;;;7.43;2.47;;;16.20;97.40;;;;;;5027451;28;20029;-60
2022/05/23 02:02:26;;;;;;;6.57;2.10;;;16.20;97.50;;;;;;5031138;28;20040;-60
2022/05/23 02:04:53;;;;;;;6.47;2.13;;;16.20;97.30;;;;;;5027441;28;20228;-60
2022/05/23 02:07:19;;;;;;;9.07;2.65;;;16.20;97.40;;;;;;5015398;28;20182;-59
2022/05/23 02:09:45;;;;;;;7.03;2.38;;;16.20;97.40;;;;;;5024659;28;20029;-61
2022/05/23 02:12:12;;;;;;;4.43;2.00;;;16.20;97.40;;;;;;5026321;28;20029;-60
2022/05/23 02:14:38;;;;;;;5.15;2.42;;;16.20;97.40;;;;;;5019547;28;20065;-60
2022/05/23 02:17:08;;;;;;;8.77;2.45;;;16.20;97.50;;;;;;5025920;28;20071;-59
2022/05/23 02:19:36;;;;;;;5.78;2.00;;;16.10;97.50;;;;;;5028105;28;20033;-58
2022/05/23 02:22:02;;;;;;;5.10;2.17;;;16.20;97.40;;;;;;5025705;28;20029;-60
2022/05/23 02:24:27;;;;;;;8.18;2.53;;;16.20;97.10;;;;;;5026293;28;20096;-60
2022/05/23 02:26:53;;;;;;;5.25;2.30;;;16.20;97.10;;;;;;5021764;28;20061;-58
2022/05/23 02:29:18;;;;;;;5.97;2.60;;;16.10;97.20;;;;;;5025314;28;20029;-60
2022/05/23 02:31:44;;;;;;;10.13;3.15;;;16.10;98.00;;;;;;5029143;28;20037;-60
2022/05/23 02:34:10;;;;;;;5.78;2.10;;;16.10;98.20;;;;;;5011341;28;20054;-60
2022/05/23 02:36:36;;;;;;;5.93;3.20;;;16.10;97.70;;;;;;5015797;28;20026;-61
2022/05/23 02:39:01;;;;;;;4.78;2.45;;;16.00;98.40;;;;;;5028801;28;20092;-60
2022/05/23 02:41:27;;;;;;;4.65;2.35;;;16.00;99.50;;;;;;5029493;28;20042;-59
2022/05/23 02:43:52;;;;;;;8.40;2.47;;;16.00;99.40;;;;;;5030440;28;20030;-59
2022/05/23 02:46:18;;;;;;;7.65;2.30;;;16.00;98.60;;;;;;5028411;28;20030;-60
2022/05/23 02:48:43;;;;;;;4.90;2.22;;;16.00;98.90;;;;;;5030716;28;20041;-61
2022/05/23 02:51:09;;;;;;;7.60;2.22;;;16.00;99.60;;;;;;5027170;28;20426;-60
2022/05/23 02:53:34;;;;;;;5.78;2.53;;;15.90;99.90;;;;;;5023850;28;20037;-60
2022/05/23 02:56:00;;;;;;;6.07;2.13;;;15.90;99.60;;;;;;5029130;28;21830;-60
2022/05/23 02:58:25;;;;;;;6.18;2.20;;;16.00;99.10;;;;;;5025183;28;20030;-60
2022/05/23 03:00:51;;;;;;;4.95;2.47;;;16.10;98.90;;;;;;5027685;28;20045;-60
2022/05/23 03:03:17;;;;;;;5.63;2.33;;;16.10;99.00;;;;;;5028842;28;20044;-60
2022/05/23 03:05:45;;;;;;;4.80;2.33;;;16.10;99.00;;;;;;5026772;28;20037;-60
2022/05/23 03:08:13;;;;;;;6.38;2.63;;;16.00;99.40;;;;;;5025782;28;20018;-60
2022/05/23 03:10:39;;;;;;;4.65;2.25;;;16.00;99.20;;;;;;5029418;28;20060;-59
2022/05/23 03:13:06;;;;;;;9.80;2.90;;;15.90;99.40;;;;;;5028655;28;20100;-59
2022/05/23 03:15:31;;;;;;;5.90;2.60;;;15.90;99.20;;;;;;5022606;28;20019;-61
2022/05/23 03:17:57;;;;;;;7.45;2.47;;;15.90;99.20;;;;;;5027027;28;20010;-60
2022/05/23 03:20:23;;;;;;;8.45;3.03;;;16.00;98.60;;;;;;5022997;28;20049;-61
2022/05/23 03:28:19;;;;;;;4.85;2.40;;;16.10;98.40;;;;;;5028393;28;20068;-60
2022/05/23 03:30:46;;;;;;;9.52;3.45;;;16.10;98.40;;;;;;5026212;28;20021;-61
2022/05/23 03:33:12;;;;;;;4.40;2.28;;;16.10;98.50;;;;;;5011250;28;20068;-59
2022/05/23 03:35:38;;;;;;;6.70;2.13;;;16.20;98.70;;;;;;5020437;28;20044;-61
2022/05/23 03:38:04;;;;;;;5.40;2.22;;;16.10;98.50;;;;;;5018815;28;20026;-61
2022/05/23 03:40:30;;;;;;;6.15;2.42;;;16.10;98.30;;;;;;5026820;28;20025;-60
2022/05/23 03:42:56;;;;;;;5.43;2.45;;;16.10;98.30;;;;;;5028800;28;20120;-60
2022/05/23 03:45:23;;;;;;;4.97;2.38;;;16.10;98.30;;;;;;5020571;28;20037;-60
2022/05/23 03:47:53;;;;;;;9.35;2.47;;;16.10;98.20;;;;;;5021752;28;20030;-59
2022/05/23 03:50:20;;;;;;;6.03;2.20;;;16.10;98.40;;;;;;5025243;28;20032;-59
2022/05/23 03:52:46;;;;;;;8.68;2.45;;;16.10;98.10;;;;;;5028738;28;20033;-60
2022/05/23 03:55:11;;;;;;;6.13;2.17;;;16.10;98.20;;;;;;5029911;28;20040;-59
2022/05/23 03:57:37;;;;;;;4.18;2.53;;;16.20;98.00;;;;;;5024901;28;20033;-60
2022/05/23 04:00:06;;;;;;;4.78;2.25;;;16.20;97.80;;;;;;5025428;28;20737;-60
2022/05/23 04:02:32;;;;;;;4.53;2.47;;;16.30;97.70;;;;;;5027718;28;20025;-60
2022/05/23 04:04:58;;;;;;;4.63;2.10;;;16.30;98.00;;;;;;5025850;28;20041;-60
2022/05/23 04:07:23;;;;;;;7.18;2.40;;;16.30;97.90;;;;;;5028216;28;20029;-59
2022/05/23 04:09:49;;;;;;;4.60;2.63;;;16.20;97.90;;;;;;5019326;28;20026;-60
2022/05/23 04:12:14;;;;;;;4.10;2.35;;;16.20;97.60;;;;;;5027778;28;20017;-60
2022/05/23 04:14:40;;;;;;;7.32;2.95;;;16.30;97.60;;;;;;5028945;28;20041;-58
2022/05/23 04:17:08;;;;;;;4.05;2.15;;;16.30;97.60;;;;;;5021777;28;20049;-60
2022/05/23 04:19:33;;;;;;;5.10;2.72;;;16.30;97.40;;;;;;5030357;28;20044;-60
2022/05/23 04:21:59;;;;;;;6.57;3.10;;;16.40;97.50;;;;;;5021952;28;20479;-61
2022/05/23 04:24:24;;;;;;;6.97;2.15;;;16.40;97.90;;;;;;5020841;28;20041;-60
2022/05/23 04:26:55;;;;;;;5.22;1.95;;;16.40;97.40;;;;;;5019711;28;20025;-61
2022/05/23 04:29:21;;;;;;;5.95;2.13;;;16.40;97.20;;;;;;5026591;28;20060;-60
2022/05/23 04:31:47;;;;;;;6.47;2.58;;;16.40;97.00;;;;;;5026857;28;20503;-60
2022/05/23 04:36:56;;;;;;;7.72;2.97;;;16.50;97.30;;;;;;5028658;28;20079;-59
2022/05/23 04:39:22;;;;;;;8.88;2.60;;;16.50;97.40;;;;;;5025234;28;20469;-60
2022/05/23 04:41:47;;;;;;;5.40;2.38;;;16.50;97.30;;;;;;5023452;28;20040;-60
2022/05/23 04:44:13;;;;;;;5.22;2.10;;;16.70;97.10;;;;;;5020463;28;20112;-60
2022/05/23 04:49:41;;;;;;;5.25;2.60;;;16.80;97.40;;;;;;5028333;28;20113;-61
2022/05/23 04:52:14;;;;;;;;;;;16.80;97.00;;;;;;5027678;28;20030;-60
2022/05/23 04:54:40;;;;;;;6.07;2.15;;;16.80;97.30;;;;;;5027713;28;19909;-61
2022/05/23 04:57:10;;;;;;;7.78;2.78;;;16.80;96.70;;;;;;5026583;28;20057;-59
2022/05/23 04:59:36;;;;;;;4.97;2.42;;;16.90;96.70;;;;;;5025400;28;20029;-60
2022/05/23 05:02:03;;;;;;;5.40;2.50;;;17.00;96.30;;;;;;5023510;28;20037;-61
2022/05/23 05:04:30;;;;;;;3.65;2.55;;;17.00;96.60;;;;;;5025714;28;20049;-60
2022/05/23 05:06:56;;;;;;;4.25;2.05;;;17.10;96.40;;;;;;5016927;28;20041;-60
2022/05/23 05:09:22;;;;;;;4.90;2.70;;;17.10;96.60;;;;;;5018938;28;20100;-60
2022/05/23 05:11:47;;;;;;;6.63;2.63;;;17.20;96.40;;;;;;5019232;28;20025;-61
2022/05/23 05:14:13;;;;;;;7.55;2.60;;;17.20;96.50;;;;;;5025749;28;20021;-61
2022/05/23 05:16:38;;;;;;;5.30;2.40;;;17.20;96.40;;;;;;5026676;28;20041;-60
2022/05/23 05:19:04;;;;;;;6.18;2.88;;;17.20;96.30;;;;;;5022563;28;20026;-60
2022/05/23 05:21:29;;;;;;;4.13;2.28;;;17.20;96.30;;;;;;5027162;28;20408;-61
2022/05/23 05:23:55;;;;;;;6.97;2.92;;;17.20;96.30;;;;;;5027697;28;20076;-60
2022/05/23 05:26:22;;;;;;;8.95;2.53;;;17.20;96.30;;;;;;5027412;28;20074;-59
2022/05/23 05:28:48;;;;;;;5.88;2.63;;;17.30;96.50;;;;;;5025102;28;20032;-59
2022/05/23 05:31:45;;;;;;;6.47;2.72;;;17.40;96.50;;;;;;5031828;28;20033;-61
2022/05/23 05:34:19;;;;;;;6.03;3.53;;;17.50;96.60;;;;;;5006978;28;20053;-58
2022/05/23 05:36:49;;;;;;;5.00;2.63;;;17.80;96.10;;;;;;5028261;28;20040;-59
2022/05/23 05:39:19;;;;;;;6.00;3.33;;;18.00;96.40;;;;;;5026814;28;20482;-59
2022/05/23 05:42:01;;;;;;;3.42;2.30;;;18.10;94.90;;;;;;5029964;28;20041;-56
2022/05/23 05:44:30;;;;;;;7.07;2.75;;;18.20;94.60;;;;;;5031267;28;20071;-59
2022/05/23 05:47:00;;;;;;;6.70;3.15;;;18.20;94.30;;;;;;5011874;28;20103;-60
2022/05/23 05:49:29;;;;;;;5.95;2.63;;;18.20;94.50;;;;;;5022698;28;20045;-61
2022/05/23 05:52:00;;;;;;;3.05;1.95;;;18.20;94.10;;;;;;5023434;28;20026;-60
2022/05/23 05:54:28;;;;;;;4.00;2.22;;;18.10;94.40;;;;;;5015807;28;20056;-61
2022/05/23 05:56:55;;;;;;;7.63;2.65;;;18.10;94.50;;;;;;5025147;28;20042;-60
2022/05/23 05:59:21;;;;;;;4.43;2.33;;;18.20;94.30;;;;;;5019136;28;20075;-60
2022/05/23 06:01:47;;;;;;;4.38;2.40;;;18.20;94.90;;;;;;5026327;28;20026;-61
2022/05/23 06:04:12;;;;;;;7.47;3.30;;;18.30;94.80;;;;;;5028029;28;20040;-61
2022/05/23 06:12:07;;;;;;;4.43;2.28;;;18.80;93.50;;;;;;5032622;28;20072;-61
2022/05/23 06:14:32;;;;;;;4.93;2.80;;;18.70;92.60;;;;;;5024514;28;21038;-60
2022/05/23 06:16:58;;;;;;;9.55;3.13;;;18.80;93.70;;;;;;5024721;28;20117;-60
2022/05/23 06:19:23;;;;;;;5.57;2.70;;;18.80;93.80;;;;;;5030190;28;20052;-60
2022/05/23 06:21:49;;;;;;;5.85;2.83;;;19.10;94.10;;;;;;5016428;28;20030;-61
2022/05/23 06:24:14;;;;;;;4.60;2.47;;;19.00;93.60;;;;;;5012312;28;20508;-60
2022/05/23 06:26:41;;;;;;;5.88;3.25;;;19.10;93.60;;;;;;5027273;28;20112;-61
2022/05/23 06:29:06;;;;;;;6.78;2.78;;;19.10;93.10;;;;;;5028356;28;20021;-60
2022/05/23 06:31:32;;;;;;;3.50;2.30;;;19.00;92.80;;;;;;5030167;28;20285;-61
2022/05/23 06:33:57;;;;;;;8.80;3.28;;;19.10;93.20;;;;;;5010875;28;20415;-61
2022/05/23 06:36:23;;;;;;;4.10;2.35;;;19.20;92.70;;;;;;5019047;28;20026;-61
2022/05/23 06:38:49;;;;;;;4.75;2.67;;;19.10;92.70;;;;;;5024414;28;20034;-61
2022/05/23 06:41:15;;;;;;;9.02;2.90;;;19.10;93.10;;;;;;5025209;28;20449;-61
2022/05/23 06:43:43;;;;;;;4.28;2.42;;;19.10;92.50;;;;;;5030458;28;20449;-61
2022/05/23 06:46:10;;;;;;;4.70;2.50;;;19.30;93.10;;;;;;5008451;28;20032;-61
2022/05/23 06:48:36;;;;;;;6.90;2.85;;;19.50;92.00;;;;;;5022276;28;20147;-60
2022/05/23 06:51:02;;;;;;;5.43;2.38;;;19.70;91.90;;;;;;5023785;28;20022;-61
2022/05/23 06:53:29;;;;;;;6.28;2.72;;;19.90;91.60;;;;;;5030677;28;20105;-61
2022/05/23 06:55:55;;;;;;;4.50;2.20;;;20.40;91.20;;;;;;5025063;28;20033;-61
2022/05/23 06:58:21;;;;;;;9.00;2.03;;;21.20;90.80;;;;;;5021923;28;20395;-59
2022/05/23 07:00:48;;;;;;;4.78;1.95;;;22.30;89.40;;;;;;5023144;28;20036;-59
2022/05/23 07:03:14;;;;;;;3.25;1.85;;;23.00;84.50;;;;;;5030862;28;20040;-58
2022/05/23 07:13:55;;;;;;;4.03;2.13;;;23.60;79.20;;;;;;5024927;28;20059;-60
2022/05/23 07:16:22;;;;;;;6.30;2.10;;;23.10;79.70;;;;;;5025813;28;20527;-59
2022/05/23 07:18:47;;;;;;;6.07;2.20;;;22.70;81.20;;;;;;5030428;28;20033;-59
2022/05/23 07:21:13;;;;;;;5.10;2.33;;;22.40;82.30;;;;;;5027958;28;20048;-57
2022/05/23 07:23:39;;;;;;;11.60;2.30;;;22.00;81.30;;;;;;5031184;28;20052;-58
2022/05/23 07:26:07;;;;;;;7.00;2.90;;;21.70;83.40;;;;;;5028869;28;20053;-59
2022/05/23 07:28:35;;;;;;;5.85;2.30;;;21.20;84.20;;;;;;5029647;28;20040;-58
2022/05/23 07:31:02;;;;;;;6.43;2.30;;;20.90;86.80;;;;;;5009196;28;20021;-59
2022/05/23 07:33:28;;;;;;;5.78;2.08;;;20.80;87.00;;;;;;5012870;28;20041;-58
2022/05/23 07:35:55;;;;;;;4.20;1.80;;;20.70;88.90;;;;;;5027340;28;20041;-60
2022/05/23 07:38:20;;;;;;;4.90;2.60;;;20.60;90.10;;;;;;5030331;28;20048;-59
2022/05/23 07:40:50;;;;;;;6.63;2.33;;;20.60;88.40;;;;;;5028290;28;20033;-58
2022/05/23 07:43:16;;;;;;;3.65;2.10;;;20.30;89.00;;;;;;5028155;28;20036;-59
2022/05/23 07:45:42;;;;;;;4.38;2.47;;;20.30;90.20;;;;;;5024424;28;20411;-58
2022/05/23 07:48:08;;;;;;;6.18;2.45;;;20.40;90.60;;;;;;5025895;28;20502;-58
2022/05/23 07:50:33;;;;;;;9.18;2.45;;;20.40;90.50;;;;;;5020109;28;20036;-59
2022/05/23 08:01:11;;;;;;;3.92;2.20;;;20.60;89.90;;;;;;5019011;28;20037;-59
2022/05/23 08:03:36;;;;;;;6.65;2.45;;;20.80;90.30;;;;;;5020435;28;20037;-60
2022/05/23 08:06:02;;;;;;;5.05;2.47;;;21.20;90.30;;;;;;5024175;28;20045;-59
2022/05/23 08:08:28;;;;;;;5.20;2.60;;;21.50;89.20;;;;;;5015559;28;20022;-59
2022/05/23 08:10:53;;;;;;;4.40;2.22;;;21.70;89.50;;;;;;5013176;28;20037;-59
2022/05/23 08:13:19;;;;;;;8.82;2.20;;;21.90;86.60;;;;;;5026009;28;20026;-60
2022/05/23 08:15:44;;;;;;;8.35;2.20;;;22.00;87.00;;;;;;5023896;28;20021;-59
2022/05/23 08:18:10;;;;;;;5.82;2.08;;;22.20;87.10;;;;;;5021641;28;20026;-59
2022/05/23 08:20:37;;;;;;;6.82;2.22;;;22.30;85.80;;;;;;5025408;28;20596;-60
2022/05/23 08:23:03;;;;;;;4.85;2.00;;;22.20;85.90;;;;;;5027641;28;20181;-60
2022/05/23 08:25:29;;;;;;;5.40;2.22;;;21.90;87.50;;;;;;5021052;28;20065;-60
2022/05/23 08:27:54;;;;;;;3.72;2.38;;;22.00;87.20;;;;;;5010305;28;20030;-59
2022/05/23 08:30:21;;;;;;;8.20;2.70;;;22.40;87.60;;;;;;5023375;28;20037;-60
2022/05/23 08:32:47;;;;;;;4.50;1.83;;;22.80;85.60;;;;;;5007475;28;20056;-59
2022/05/23 08:35:13;;;;;;;4.65;2.28;;;22.80;83.30;;;;;;5025868;28;20096;-60
2022/05/23 08:37:39;;;;;;;4.30;1.80;;;22.90;83.80;;;;;;5027911;28;20510;-59
2022/05/23 08:40:06;;;;;;;5.30;1.70;;;23.20;84.50;;;;;;5028500;28;20064;-58
2022/05/23 08:42:53;;;;;;;6.35;2.20;;;23.40;84.90;;;;;;5027684;28;20040;-60
2022/05/23 08:45:34;;;;;;;4.53;2.10;;;23.50;84.00;;;;;;5027043;28;20494;-59
2022/05/23 08:48:27;;;;;;;5.63;2.05;;;23.80;83.80;;;;;;5025166;28;20029;-59
2022/05/23 08:51:10;;;;;;;4.28;2.42;;;23.90;81.90;;;;;;5026600;28;20029;-60
2022/05/23 08:53:48;;;;;;;3.80;1.67;;;24.10;82.50;;;;;;5024559;28;20060;-57
2022/05/23 08:56:34;;;;;;;4.35;2.08;;;24.40;80.10;;;;;;5027878;28;20191;-59
2022/05/23 08:59:03;;;;;;;5.97;2.45;;;24.00;81.20;;;;;;5024011;28;20643;-59
2022/05/23 09:01:57;;;;;;;2.92;1.83;;;24.00;81.40;;;;;;5018051;28;20029;-60
2022/05/23 09:04:22;;;;;;;;;;;24.00;82.60;;;;;;5023171;28;20026;-60
2022/05/23 09:06:49;;;;;;;4.65;1.90;;;24.20;81.20;;;;;;5026560;28;20578;-58
2022/05/23 09:09:22;;;;;;;3.85;1.67;;;24.50;79.40;;;;;;5027674;28;20049;-59
2022/05/23 09:11:54;;;;;;;2.47;1.52;;;25.70;78.50;;;;;;5029039;28;20383;-59
2022/05/23 09:14:20;;;;;;;3.87;1.70;;;26.70;79.10;;;;;;5031203;28;20033;-60
2022/05/23 09:16:49;;;;;;;6.13;2.08;;;27.50;75.40;;;;;;5022287;28;20057;-59
2022/05/23 09:19:27;;;;;;;2.88;1.40;;;27.50;72.00;;;;;;5028497;28;20104;-59
2022/05/23 09:22:17;;;;;;;6.45;1.80;;;26.90;71.70;;;;;;5014994;28;20167;-59
2022/05/23 09:24:48;;;;;;;2.40;1.70;;;26.40;73.40;;;;;;5035897;28;20471;-58
2022/05/23 09:27:25;;;;;;;2.50;1.42;;;26.40;76.10;;;;;;5032581;28;20030;-58
2022/05/23 09:29:54;;;;;;;3.47;1.42;;;26.10;74.80;;;;;;5031868;28;20142;-59
2022/05/23 09:32:23;;;;;;;2.42;1.40;;;26.50;76.30;;;;;;5020651;28;20037;-59
2022/05/23 09:35:01;;;;;;;3.58;1.70;;;27.30;74.90;;;;;;5011422;28;20033;-59
2022/05/23 09:37:38;;;;;;;5.10;2.10;;;27.60;72.70;;;;;;5029486;28;20029;-60
2022/05/23 09:40:06;;;;;;;4.25;1.38;;;28.50;71.90;;;;;;5034919;28;20658;-60
2022/05/23 09:48:16;;;;;;;4.00;2.00;;;29.00;66.30;;;;;;5029583;28;20060;-58
2022/05/23 09:50:59;;;;;;;3.67;1.77;;;28.00;67.70;;;;;;5011421;28;20018;-58
2022/05/23 09:53:26;;;;;;;3.23;1.50;;;27.80;69.10;;;;;;5029373;28;20021;-59
2022/05/23 09:55:53;;;;;;;6.55;2.25;;;27.70;69.50;;;;;;5018851;28;20022;-59
2022/05/23 09:58:37;;;;;;;2.53;1.42;;;27.00;70.20;;;;;;5020912;28;20041;-59
2022/05/23 10:01:10;;;;;;;2.97;1.50;;;26.80;70.70;;;;;;5023480;28;20033;-59
2022/05/23 10:03:46;;;;;;;;;;;26.80;72.20;;;;;;5030172;28;20025;-59
2022/05/23 10:06:12;;;;;;;6.13;1.65;;;26.50;72.30;;;;;;5007043;28;19936;-58
2022/05/23 10:08:43;;;;;;;6.03;1.73;;;26.30;73.10;;;;;;5011618;28;20072;-59
2022/05/23 10:11:20;;;;;;;4.50;1.55;;;26.30;72.50;;;;;;5023646;28;20028;-59
2022/05/23 10:13:59;;;;;;;4.40;1.65;;;26.50;74.80;;;;;;5027523;28;20029;-59
2022/05/23 10:16:29;;;;;;;6.25;2.00;;;26.90;73.90;;;;;;5024411;28;20491;-59
2022/05/23 10:19:03;;;;;;;3.45;1.70;;;27.20;73.70;;;;;;5018446;28;20030;-60
2022/05/23 10:21:33;;;;;;;4.70;1.83;;;27.40;73.20;;;;;;5023255;28;20384;-59
2022/05/23 10:24:04;;;;;;;4.88;1.60;;;27.50;71.50;;;;;;5012684;28;20025;-58
2022/05/23 10:26:38;;;;;;;6.68;1.85;;;27.60;71.70;;;;;;5028105;28;20446;-59
2022/05/23 10:29:08;;;;;;;4.55;1.70;;;27.40;70.00;;;;;;5032670;28;20025;-61
2022/05/23 10:31:49;;;;;;;4.57;1.95;;;27.10;70.70;;;;;;5032045;28;20036;-61
2022/05/23 10:34:24;;;;;;;7.05;2.00;;;27.20;72.20;;;;;;5016222;28;20555;-59
2022/05/23 10:36:53;;;;;;;4.30;1.85;;;27.30;73.50;;;;;;5032336;28;20025;-59
2022/05/23 10:42:17;;;;;;;3.10;2.30;;;27.00;73.00;;;;;;5029336;28;20064;-59
2022/05/23 10:45:04;;;;;;;6.68;1.88;;;26.90;72.70;;;;;;5032589;28;20065;-59
2022/05/23 10:47:41;;;;;;;6.68;2.20;;;26.30;74.10;;;;;;5030279;28;20049;-60
2022/05/23 10:50:18;;;;;;;2.38;1.55;;;25.70;74.80;;;;;;5029779;28;20023;-59
2022/05/23 10:53:25;;;;;;;5.05;2.03;;;25.70;76.30;;;;;;5030397;28;20033;-59
2022/05/23 10:56:36;;;;;;;6.00;2.47;;;25.90;76.90;;;;;;5030728;28;20044;-61
2022/05/23 10:59:08;;;;;;;7.00;2.53;;;26.20;76.60;;;;;;4985776;28;20649;-60
2022/05/23 11:01:39;;;;;;;7.72;2.38;;;26.40;77.50;;;;;;4988152;28;20034;-59
2022/05/23 11:04:45;;;;;;;7.60;1.80;;;26.40;76.30;;;;;;5013356;28;20045;-59
2022/05/23 11:07:22;;;;;;;4.28;1.92;;;26.50;77.20;;;;;;5028938;28;20083;-59
2022/05/23 11:10:24;;;;;;;5.47;1.95;;;26.50;76.30;;;;;;5022422;28;20104;-60
2022/05/23 11:13:16;;;;;;;7.95;2.42;;;26.40;77.00;;;;;;5023979;28;20061;-59
2022/05/23 11:16:05;;;;;;;3.70;1.60;;;26.60;78.00;;;;;;4996258;28;20530;-59
2022/05/23 11:18:54;;;;;;;4.10;1.83;;;26.60;79.20;;;;;;5021471;28;20026;-59
2022/05/23 11:21:31;;;;;;;6.07;1.98;;;26.80;76.90;;;;;;5019896;28;20022;-60
2022/05/23 11:24:10;;;;;;;6.32;2.10;;;26.60;76.80;;;;;;5027040;28;20107;-59
2022/05/23 11:26:48;;;;;;;5.55;2.22;;;26.70;77.30;;;;;;5018206;28;20017;-60
2022/05/23 11:35:10;;;;;;;8.43;2.05;;;27.20;78.40;;;;;;5006796;28;20192;-60
2022/05/23 11:37:52;;;;;;;5.60;1.90;;;27.30;77.10;;;;;;5020040;28;20526;-60
2022/05/23 11:40:26;;;;;;;4.70;2.08;;;27.20;77.10;;;;;;5022818;28;20034;-59
2022/05/23 11:42:58;;;;;;;5.47;2.10;;;27.00;77.10;;;;;;5026787;28;20037;-59
2022/05/23 11:46:00;;;;;;;4.03;1.90;;;27.00;76.20;;;;;;5026094;28;20040;-59
2022/05/23 11:48:34;;;;;;;5.32;1.88;;;27.20;77.50;;;;;;5028211;28;20025;-60
2022/05/23 11:51:25;;;;;;;4.13;1.65;;;26.90;77.30;;;;;;5022585;28;20391;-60
2022/05/23 11:53:56;;;;;;;3.50;1.95;;;27.10;77.60;;;;;;5029183;28;20201;-59
2022/05/23 11:56:43;;;;;;;4.63;2.10;;;27.20;78.60;;;;;;5029805;28;20115;-59
2022/05/23 11:59:12;;;;;;;6.68;1.90;;;27.30;76.60;;;;;;5028604;28;20026;-60
2022/05/23 12:01:38;;;;;;;6.03;1.90;;;27.20;76.90;;;;;;5025171;28;20076;-59
2022/05/23 12:04:04;;;;;;;5.88;2.13;;;27.10;77.50;;;;;;5017997;28;20042;-60
2022/05/23 12:06:29;;;;;;;5.82;2.25;;;27.00;77.20;;;;;;5021847;28;20017;-58
2022/05/23 12:08:57;;;;;;;7.75;2.75;;;26.80;77.60;;;;;;5016193;28;20076;-59
2022/05/23 12:11:25;;;;;;;6.95;2.10;;;26.50;79.80;;;;;;5020054;28;20022;-59
2022/05/23 12:13:53;;;;;;;3.83;1.95;;;26.40;80.50;;;;;;5020982;28;20038;-60
2022/05/23 12:16:20;;;;;;;3.17;1.98;;;26.20;81.10;;;;;;5004345;28;20027;-60
2022/05/23 12:18:48;;;;;;;6.68;1.90;;;26.10;81.80;;;;;;5025774;28;20509;-58
2022/05/23 12:21:35;;;;;;;4.63;2.10;;;25.90;82.00;;;;;;5021755;28;20473;-60
2022/05/23 12:24:31;;;;;;;6.28;2.13;;;25.90;83.20;;;;;;5026742;28;20029;-59
2022/05/23 12:26:59;;;;;;;4.32;1.98;;;25.60;82.40;;;;;;5010622;28;20519;-59
2022/05/23 12:29:34;;;;;;;4.70;2.50;;;25.50;84.20;;;;;;5025669;28;20437;-60
2022/05/23 12:32:28;;;;;;;3.95;1.95;;;25.50;84.60;;;;;;5026592;28;20029;-57
2022/05/23 12:34:56;;;;;;;4.47;2.42;;;25.50;85.10;;;;;;5004580;28;20714;-58
2022/05/23 12:37:37;;;;;;;8.02;1.92;;;25.30;85.80;;;;;;5017962;28;20021;-59
2022/05/23 12:40:20;;;;;;;8.77;3.08;;;25.50;85.40;;;;;;5022695;28;20022;-60
2022/05/23 12:43:25;;;;;;;3.10;2.20;;;25.60;85.30;;;;;;5024471;28;20042;-59
2022/05/23 12:46:28;;;;;;;4.78;1.98;;;26.00;84.20;;;;;;5028396;28;20034;-60
2022/05/23 12:48:59;;;;;;;6.13;1.98;;;26.40;83.70;;;;;;5023454;28;20036;-60
2022/05/23 12:51:36;;;;;;;9.90;2.15;;;26.60;83.20;;;;;;5021216;28;20034;-60
2022/05/23 12:54:17;;;;;;;5.47;2.17;;;26.90;83.00;;;;;;5027624;28;20109;-60
2022/05/23 12:56:58;;;;;;;9.90;2.17;;;27.10;83.50;;;;;;5015198;28;20022;-60
2022/05/23 12:59:48;;;;;;;9.57;2.30;;;27.00;81.50;;;;;;5021935;28;20029;-59
2022/05/23 13:02:35;;;;;;;6.47;2.10;;;26.70;81.90;;;;;;5027069;28;20029;-60
2022/05/23 13:05:17;;;;;;;12.18;2.17;;;26.70;83.50;;;;;;5026597;28;20041;-60
2022/05/23 13:07:42;;;;;;;7.10;2.35;;;26.50;83.30;;;;;;5026818;28;20025;-60
2022/05/23 13:10:11;;;;;;;12.77;2.20;;;26.40;83.30;;;;;;5024881;28;20520;-60
2022/05/23 13:12:41;;;;;;;5.40;2.03;;;26.10;83.30;;;;;;5028987;28;20391;-60
2022/05/23 13:15:08;;;;;;;10.95;2.63;;;25.70;84.70;;;;;;5024895;28;20052;-60
2022/05/23 13:17:39;;;;;;;4.75;2.42;;;25.50;85.70;;;;;;5013535;28;20029;-60
2022/05/23 13:23:13;;;;;;;4.50;2.45;;;24.90;89.40;;;;;;5026460;28;20024;-60
2022/05/23 13:25:39;;;;;;;8.85;2.70;;;24.60;90.00;;;;;;5018747;28;20025;-60
2022/05/23 13:28:09;;;;;;;9.45;2.33;;;24.50;91.70;;;;;;5028723;28;20017;-58
2022/05/23 13:30:37;;;;;;;6.50;2.72;;;24.30;94.00;;;;;;5022001;28;20029;-60
2022/05/23 13:33:14;;;;;;;8.60;2.60;;;24.20;94.40;;;;;;5025174;28;20556;-60
2022/05/23 13:35:45;;;;;;;6.13;3.22;;;23.90;96.10;;;;;;5008695;28;20041;-60
2022/05/23 13:38:31;;;;;;;6.60;2.65;;;23.80;99.90;;;;;;5025126;28;20056;-64
2022/05/23 13:40:59;;;;;;;11.38;3.35;;;23.50;99.90;;;;;;5024559;28;20045;-57
2022/05/23 13:43:44;;;;;;;12.57;4.13;;;23.20;99.90;;;;;;5026748;28;20511;-60
2022/05/23 13:46:22;;;;;;;11.23;3.85;;;23.00;99.90;;;;;;5027023;28;20029;-60
2022/05/23 13:49:00;;;;;;;9.77;3.58;;;22.80;99.90;;;;;;5031663;28;20018;-57
2022/05/23 13:51:57;;;;;;;11.10;5.43;;;22.70;99.90;;;;;;5027944;28;20029;-60
2022/05/23 13:54:29;;;;;;;9.88;3.85;;;22.60;99.90;;;;;;5001785;28;20042;-59
2022/05/23 13:57:10;;;;;;;9.38;3.60;;;22.50;99.90;;;;;;5023762;28;20036;-58
2022/05/23 13:59:46;;;;;;;9.40;3.85;;;22.50;99.90;;;;;;5028597;28;20017;-59
2022/05/23 14:02:19;;;;;;;10.93;3.13;;;22.50;99.90;;;;;;5027090;28;20037;-60